首页
METAR-TAF:

METAR-TAF

机场 :

杜塞尔多夫机场

杜塞尔多夫, 德国

纬度: 51-18N, 经度: 006-46E, 海拔: 45米

当前天气观测

该预报发布于28分钟前的03:20 UTC
风速13节,风向东南,在东转东南之间变化
温度 5°C
湿度 87%
气压 1000 hPa
能见度10公里或以上
1500米以下无云,无积雨云

METAR: EDDL 140320Z 14013KT 120V180 CAVOK 05/03 Q1000 NOSIG

时间: 04:48 (03:48 UTC)

预报

该预报发布于4小时和48分钟前的23:00 UTC
预报有效从14日的 00点(UTC)到 15日的 06点(UTC)
风速11节,风向南转南东
能见度10公里或以上
多云层高于4500英尺
成为
从 14日的 14点(UTC)到 14日的 17点(UTC)
风速6节,风向
成为
从 14日的 19点(UTC)到 14日的 22点(UTC)
风速7节,风向东北

TAF: EDDL 132300Z 1400/1506 15011KT 9999 BKN045 BECMG 1414/1417 10006KT BECMG 1419/1422 04007KT

超过4000个机场的气象观测和天气预报(METAR&TAF报告)。

可查询的气象台以黄色和红色小点在地图上表示。

将鼠标移到小点上方,可查看气象台名称。

然后点击查看天气观测和预报。

如需切换地图:点击带黑十字的绿色按钮放大地图;点击带横线的绿色按钮缩小地图;或者点击绿色箭头查看邻近地区的地图。


METAR-TAF: